Time;durP1;ratioP1;P1;durP2;ratioP2;P2;SDS_P1;SDS_P2;PMS_P1;PMS_P2;Temp;Humidity;BMP_temperature;BMP_pressure;BME280_temperature;BME280_humidity;BME280_pressure;Samples;Min_cycle;Max_cycle;Signal;HPM_P1;HPM_P2
2021/05/21 00:02:11;;;;;;;7.00;1.50;;;14.40;80.00;;;;;;5018480;28;20127;-85
2021/05/21 00:04:37;;;;;;;1.95;0.70;;;14.40;80.20;;;;;;5065555;22;20124;-88
2021/05/21 00:07:03;;;;;;;5.72;1.30;;;14.40;79.40;;;;;;5054885;28;20028;-87
2021/05/21 00:09:28;;;;;;;3.75;1.00;;;14.40;80.00;;;;;;5022420;28;20385;-87
2021/05/21 00:11:54;;;;;;;4.40;0.85;;;14.40;80.20;;;;;;5061160;28;20093;-86
2021/05/21 00:14:20;;;;;;;3.33;1.23;;;14.40;80.20;;;;;;5055465;28;20028;-87
2021/05/21 00:16:46;;;;;;;1.75;0.80;;;14.40;80.50;;;;;;5039046;28;20028;-89
2021/05/21 00:19:11;;;;;;;3.92;1.10;;;14.40;80.10;;;;;;5073274;28;20037;-88
2021/05/21 00:21:37;;;;;;;2.65;1.00;;;14.40;80.20;;;;;;5042836;28;20044;-86
2021/05/21 00:24:03;;;;;;;3.58;1.10;;;14.40;80.20;;;;;;5055245;28;20082;-88
2021/05/21 00:26:29;;;;;;;1.98;0.90;;;14.40;80.30;;;;;;5055428;28;20039;-88
2021/05/21 00:28:56;;;;;;;2.85;1.10;;;14.40;80.20;;;;;;5038767;28;20115;-87
2021/05/21 00:31:22;;;;;;;2.10;1.05;;;14.40;80.30;;;;;;5055364;28;20066;-88
2021/05/21 00:33:49;;;;;;;4.60;1.65;;;14.40;80.10;;;;;;5038407;28;20020;-88
2021/05/21 00:36:15;;;;;;;3.03;0.98;;;14.40;80.50;;;;;;5055440;28;20021;-88
2021/05/21 00:38:41;;;;;;;2.25;0.80;;;14.40;80.30;;;;;;5054551;28;20029;-86
2021/05/21 00:41:07;;;;;;;1.75;0.90;;;14.40;80.70;;;;;;5054749;28;20569;-87
2021/05/21 00:43:32;;;;;;;1.77;0.80;;;14.40;80.60;;;;;;5021692;28;20098;-87
2021/05/21 00:46:00;;;;;;;3.70;0.88;;;14.40;80.60;;;;;;5054665;28;20028;-86
2021/05/21 00:48:25;;;;;;;1.70;0.88;;;14.40;80.40;;;;;;5051060;28;20036;-87
2021/05/21 00:50:51;;;;;;;2.30;0.90;;;14.40;80.50;;;;;;5043943;28;20373;-87
2021/05/21 00:53:19;;;;;;;2.58;1.00;;;14.40;80.50;;;;;;5054586;28;20107;-87
2021/05/21 00:55:44;;;;;;;2.55;0.80;;;14.40;80.40;;;;;;5054679;28;20078;-87
2021/05/21 00:58:10;;;;;;;2.08;1.08;;;14.40;80.30;;;;;;5021553;28;20487;-87
2021/05/21 01:00:36;;;;;;;2.60;0.70;;;14.40;80.20;;;;;;5038564;28;20513;-88
2021/05/21 01:03:01;;;;;;;1.50;0.90;;;14.40;80.00;;;;;;5054824;28;20478;-88
2021/05/21 01:05:27;;;;;;;2.15;0.98;;;14.50;80.20;;;;;;5032518;28;20502;-87
2021/05/21 01:07:53;;;;;;;2.90;0.95;;;14.50;80.10;;;;;;5064724;28;20056;-88
2021/05/21 01:10:18;;;;;;;3.08;1.30;;;14.50;80.40;;;;;;5014097;28;20040;-89
2021/05/21 01:12:44;;;;;;;1.95;1.15;;;14.50;80.00;;;;;;5018281;28;20440;-88
2021/05/21 01:15:11;;;;;;;2.33;0.88;;;14.50;80.20;;;;;;5052487;28;20459;-87
2021/05/21 01:17:37;;;;;;;4.25;1.20;;;14.50;79.80;;;;;;5051220;28;20029;-87
2021/05/21 01:20:06;;;;;;;4.20;1.20;;;14.50;79.40;;;;;;5035412;28;20103;-87
2021/05/21 01:22:32;;;;;;;2.58;0.90;;;14.50;79.40;;;;;;5051820;28;20021;-88
2021/05/21 01:24:57;;;;;;;3.90;1.00;;;14.50;79.90;;;;;;5035447;28;20132;-87
2021/05/21 01:27:24;;;;;;;3.60;1.10;;;14.50;79.80;;;;;;5035615;28;20120;-89
2021/05/21 01:29:50;;;;;;;3.42;1.17;;;14.50;79.60;;;;;;5052030;28;20496;-87
2021/05/21 01:32:16;;;;;;;2.90;1.08;;;14.50;79.70;;;;;;5032121;28;20086;-87
2021/05/21 01:34:41;;;;;;;2.83;1.02;;;14.60;79.70;;;;;;5018664;28;20108;-87
2021/05/21 01:37:18;;;;;;;5.75;1.10;;;14.50;80.00;;;;;;5018948;28;20028;-88
2021/05/21 01:39:45;;;;;;;3.67;0.90;;;14.50;79.90;;;;;;5053050;28;20364;-87
2021/05/21 01:42:12;;;;;;;3.00;0.80;;;14.50;79.60;;;;;;5052109;28;20541;-88
2021/05/21 01:44:39;;;;;;;3.05;0.88;;;14.50;79.70;;;;;;5032102;28;20045;-89
2021/05/21 01:47:05;;;;;;;3.15;0.95;;;14.50;80.00;;;;;;5043591;28;20025;-88
2021/05/21 01:49:31;;;;;;;3.03;0.90;;;14.50;80.50;;;;;;5035793;28;20040;-88
2021/05/21 01:52:00;;;;;;;0.98;0.60;;;14.50;81.40;;;;;;5051552;28;20494;-88
2021/05/21 01:54:28;;;;;;;2.10;1.00;;;14.50;81.20;;;;;;5030917;28;20048;-87
2021/05/21 01:56:53;;;;;;;1.80;0.82;;;14.50;81.20;;;;;;5057080;28;20025;-88
2021/05/21 01:59:21;;;;;;;3.25;0.95;;;14.50;81.00;;;;;;5056199;28;20048;-89
2021/05/21 02:01:47;;;;;;;2.47;0.82;;;14.50;81.00;;;;;;5055847;28;20045;-89
2021/05/21 02:04:14;;;;;;;2.08;1.00;;;14.50;80.70;;;;;;5057391;28;20445;-89
2021/05/21 02:06:40;;;;;;;3.03;0.77;;;14.50;81.20;;;;;;5059443;28;20067;-87
2021/05/21 02:09:10;;;;;;;3.13;1.20;;;14.50;81.00;;;;;;5056588;28;20028;-88
2021/05/21 02:11:37;;;;;;;2.83;1.00;;;14.50;81.30;;;;;;5076719;28;20104;-88
2021/05/21 02:14:04;;;;;;;2.88;1.10;;;14.50;82.00;;;;;;5042230;28;20442;-88
2021/05/21 02:16:29;;;;;;;3.25;0.95;;;14.50;81.50;;;;;;5026173;28;20021;-88
2021/05/21 02:18:55;;;;;;;4.45;1.30;;;14.50;81.50;;;;;;5059574;28;20025;-87
2021/05/21 02:21:22;;;;;;;7.50;1.90;;;14.50;82.90;;;;;;5059334;28;20032;-89
2021/05/21 02:23:48;;;;;;;8.45;1.98;;;14.50;84.60;;;;;;5042377;28;20033;-89
2021/05/21 02:26:13;;;;;;;6.95;2.08;;;14.50;85.10;;;;;;5055397;28;20393;-89
2021/05/21 02:28:39;;;;;;;8.88;2.13;;;14.40;85.90;;;;;;5018930;28;20028;-88
2021/05/21 02:31:05;;;;;;;10.52;2.50;;;14.40;86.80;;;;;;5042615;28;20792;-89
2021/05/21 02:33:30;;;;;;;11.90;2.85;;;14.30;87.40;;;;;;5025767;28;20025;-89
2021/05/21 02:35:56;;;;;;;7.28;2.08;;;14.30;87.60;;;;;;5041619;28;20171;-89
2021/05/21 02:38:22;;;;;;;12.32;2.67;;;14.20;87.50;;;;;;5074379;28;20178;-87
2021/05/21 02:40:47;;;;;;;16.25;2.88;;;14.10;88.10;;;;;;5075426;28;20020;-89
2021/05/21 02:43:13;;;;;;;12.93;3.08;;;14.00;88.30;;;;;;5055232;28;20021;-89
2021/05/21 02:45:39;;;;;;;13.52;3.22;;;13.80;88.80;;;;;;5051611;28;20024;-91
2021/05/21 02:48:06;;;;;;;12.20;3.78;;;13.60;89.80;;;;;;5058733;28;20027;-89
2021/05/21 02:50:32;;;;;;;13.98;3.33;;;13.50;90.00;;;;;;5059385;28;20021;-90
2021/05/21 02:52:57;;;;;;;16.15;3.42;;;13.40;90.60;;;;;;5059382;28;20066;-90
2021/05/21 02:55:23;;;;;;;17.60;2.67;;;13.30;90.80;;;;;;5058852;28;20017;-89
2021/05/21 02:57:48;;;;;;;12.95;2.80;;;13.20;91.30;;;;;;5038721;28;20013;-89
2021/05/21 03:00:15;;;;;;;14.15;2.80;;;13.10;91.40;;;;;;5052429;28;20543;-90
2021/05/21 03:02:41;;;;;;;12.10;3.08;;;13.00;91.70;;;;;;5057453;28;20086;-89
2021/05/21 03:05:07;;;;;;;13.77;2.85;;;12.90;91.80;;;;;;5058480;28;20048;-90
2021/05/21 03:07:32;;;;;;;10.07;2.60;;;12.90;92.10;;;;;;5058420;28;20534;-89
2021/05/21 03:09:58;;;;;;;12.15;2.78;;;12.80;92.20;;;;;;5078451;28;20045;-89
2021/05/21 03:12:24;;;;;;;12.00;2.35;;;12.70;92.40;;;;;;5041834;28;20057;-90
2021/05/21 03:14:50;;;;;;;13.52;2.60;;;12.70;92.80;;;;;;5025287;28;20066;-89
2021/05/21 03:17:15;;;;;;;13.20;2.75;;;12.60;92.90;;;;;;5058184;28;20051;-90
2021/05/21 03:19:41;;;;;;;10.98;3.08;;;12.60;92.80;;;;;;5074827;28;20015;-90
2021/05/21 03:22:07;;;;;;;12.70;2.60;;;12.60;92.90;;;;;;5058182;28;20039;-89
2021/05/21 03:24:33;;;;;;;14.40;3.72;;;12.60;93.00;;;;;;5041429;28;20024;-90
2021/05/21 03:26:58;;;;;;;13.50;2.72;;;12.60;93.30;;;;;;5041646;28;20024;-90
2021/05/21 03:29:24;;;;;;;14.23;2.75;;;12.60;93.40;;;;;;5041785;28;20025;-90
2021/05/21 03:31:50;;;;;;;14.10;2.50;;;12.50;93.40;;;;;;5058035;28;20032;-91
2021/05/21 03:34:15;;;;;;;11.50;2.42;;;12.50;93.60;;;;;;5063932;28;20124;-90
2021/05/21 03:36:41;;;;;;;20.40;3.80;;;12.50;93.80;;;;;;5039158;28;20048;-89
2021/05/21 03:39:08;;;;;;;15.85;2.78;;;12.40;93.80;;;;;;5040712;28;20029;-89
2021/05/21 03:41:37;;;;;;;11.10;2.65;;;12.30;93.80;;;;;;5055259;28;20103;-89
2021/05/21 03:44:03;;;;;;;11.15;2.45;;;12.30;93.70;;;;;;5060202;28;20422;-90
2021/05/21 03:46:29;;;;;;;12.70;2.47;;;12.20;94.00;;;;;;5040409;28;20020;-89
2021/05/21 03:48:55;;;;;;;17.90;3.47;;;12.20;94.10;;;;;;5040677;28;20500;-89
2021/05/21 03:51:21;;;;;;;12.43;2.33;;;12.10;94.30;;;;;;5024528;28;20024;-89
2021/05/21 03:53:46;;;;;;;11.35;2.17;;;12.10;94.10;;;;;;5073088;28;20028;-90
2021/05/21 03:56:13;;;;;;;9.57;2.10;;;12.10;94.40;;;;;;5072882;28;20527;-89
2021/05/21 03:58:39;;;;;;;14.63;2.70;;;12.10;94.50;;;;;;5072266;28;20039;-89
2021/05/21 04:01:05;;;;;;;8.85;1.95;;;12.00;94.50;;;;;;5073784;28;20039;-88
2021/05/21 04:03:31;;;;;;;10.65;2.50;;;12.10;94.30;;;;;;5057476;28;20028;-89
2021/05/21 04:05:56;;;;;;;12.90;2.35;;;12.10;94.30;;;;;;5040863;28;20061;-89
2021/05/21 04:08:22;;;;;;;11.18;2.30;;;12.10;94.20;;;;;;5075335;28;20025;-89
2021/05/21 04:10:48;;;;;;;14.73;2.67;;;12.00;94.30;;;;;;5041085;28;20054;-90
2021/05/21 04:13:14;;;;;;;16.40;2.85;;;12.10;94.20;;;;;;5057550;28;20111;-90
2021/05/21 04:15:40;;;;;;;13.38;2.45;;;12.00;94.30;;;;;;5054354;28;20020;-89
2021/05/21 04:18:10;;;;;;;9.18;2.20;;;12.10;94.30;;;;;;5024078;28;20016;-89
2021/05/21 04:20:37;;;;;;;17.00;3.10;;;12.10;94.30;;;;;;5074896;28;20012;-90
2021/05/21 04:23:03;;;;;;;6.72;1.60;;;12.10;94.20;;;;;;5057205;28;20031;-91
2021/05/21 04:25:29;;;;;;;10.55;2.28;;;12.10;94.10;;;;;;5056950;28;20032;-89
2021/05/21 04:27:55;;;;;;;11.98;2.45;;;12.10;94.10;;;;;;5043100;28;20040;-90
2021/05/21 04:30:26;;;;;;;15.50;2.45;;;12.10;94.10;;;;;;5024191;28;20033;-90
2021/05/21 04:32:52;;;;;;;11.98;2.30;;;12.10;94.10;;;;;;5040745;28;20024;-89
2021/05/21 04:35:19;;;;;;;13.10;2.72;;;12.10;94.20;;;;;;5074706;28;20096;-91
2021/05/21 04:37:45;;;;;;;10.68;2.10;;;12.10;94.30;;;;;;5040264;28;20028;-89
2021/05/21 04:40:11;;;;;;;12.13;2.65;;;12.10;94.40;;;;;;5056611;28;20119;-89
2021/05/21 04:42:37;;;;;;;12.80;2.88;;;12.10;94.50;;;;;;5073061;28;20036;-89
2021/05/21 04:45:05;;;;;;;13.60;2.97;;;12.10;94.90;;;;;;5039897;28;20092;-90
2021/05/21 04:47:31;;;;;;;14.68;3.13;;;12.00;94.70;;;;;;5069534;28;20029;-88
2021/05/21 04:49:56;;;;;;;9.52;2.00;;;12.00;94.70;;;;;;5050815;28;20033;-89
2021/05/21 04:52:22;;;;;;;7.93;2.15;;;12.00;94.80;;;;;;5041682;28;20033;-88
2021/05/21 04:54:48;;;;;;;14.93;2.78;;;12.00;94.80;;;;;;5045321;28;20493;-89
2021/05/21 04:57:13;;;;;;;10.77;2.13;;;12.00;94.90;;;;;;5084956;28;20025;-89
2021/05/21 04:59:39;;;;;;;11.77;2.50;;;12.00;95.00;;;;;;5043521;28;20178;-89
2021/05/21 05:02:05;;;;;;;8.60;2.40;;;12.00;94.90;;;;;;5055483;28;20370;-91
2021/05/21 05:04:31;;;;;;;11.75;2.42;;;12.00;94.60;;;;;;5062565;28;20562;-88
2021/05/21 05:06:57;;;;;;;10.85;2.50;;;12.00;94.50;;;;;;5060934;28;20498;-89
2021/05/21 05:09:23;;;;;;;15.52;2.80;;;12.00;94.60;;;;;;5022226;28;20032;-91
2021/05/21 05:11:49;;;;;;;7.93;1.90;;;12.10;94.60;;;;;;5073800;28;20439;-90
2021/05/21 05:14:14;;;;;;;18.95;3.63;;;12.10;94.60;;;;;;5027730;28;20031;-89
2021/05/21 05:16:41;;;;;;;15.35;2.50;;;12.10;94.70;;;;;;5046495;28;20025;-89
2021/05/21 05:19:07;;;;;;;14.55;2.92;;;12.10;94.70;;;;;;5075009;28;20021;-89
2021/05/21 05:21:37;;;;;;;10.25;2.75;;;12.20;94.80;;;;;;5066884;28;20490;-90
2021/05/21 05:24:03;;;;;;;13.20;3.28;;;12.10;95.10;;;;;;5072793;28;20059;-90
2021/05/21 05:26:29;;;;;;;13.65;3.17;;;12.20;95.20;;;;;;5070125;28;20060;-89
2021/05/21 05:28:56;;;;;;;16.85;3.75;;;12.20;95.20;;;;;;5060007;28;20135;-89
2021/05/21 05:31:22;;;;;;;10.48;2.65;;;12.30;95.30;;;;;;5055909;28;20017;-90
2021/05/21 05:33:48;;;;;;;13.60;2.85;;;12.30;95.10;;;;;;5072131;28;20024;-90
2021/05/21 05:36:14;;;;;;;15.00;3.42;;;12.30;94.40;;;;;;5064855;28;20018;-88
2021/05/21 05:38:39;;;;;;;13.18;2.80;;;12.40;93.50;;;;;;5074956;28;20102;-91
2021/05/21 05:41:05;;;;;;;18.25;3.35;;;12.40;92.80;;;;;;5037961;28;20020;-89
2021/05/21 05:43:31;;;;;;;17.20;2.92;;;12.40;93.00;;;;;;5038153;28;20025;-89
2021/05/21 05:45:57;;;;;;;15.23;3.17;;;12.50;93.00;;;;;;5021778;28;20033;-88
2021/05/21 05:48:22;;;;;;;13.57;3.05;;;12.50;92.90;;;;;;5068375;28;20028;-89
2021/05/21 05:50:49;;;;;;;14.07;2.92;;;12.60;92.90;;;;;;5038058;28;20074;-89
2021/05/21 05:53:19;;;;;;;12.38;2.53;;;12.60;93.00;;;;;;5071458;28;20070;-88
2021/05/21 05:55:45;;;;;;;11.77;3.15;;;12.70;92.40;;;;;;5072420;28;20734;-88
2021/05/21 05:58:12;;;;;;;12.77;2.97;;;12.70;92.50;;;;;;5052298;28;20087;-88
2021/05/21 06:00:39;;;;;;;10.52;2.80;;;12.80;92.10;;;;;;5053903;28;20035;-87
2021/05/21 06:03:09;;;;;;;11.90;2.65;;;12.80;91.40;;;;;;5050462;28;20044;-88
2021/05/21 06:05:37;;;;;;;13.05;2.78;;;12.90;91.00;;;;;;5073404;22;20067;-88
2021/05/21 06:08:05;;;;;;;10.85;2.58;;;12.90;90.10;;;;;;5074277;28;20031;-87
2021/05/21 06:10:32;;;;;;;13.90;2.67;;;13.00;88.70;;;;;;5070148;28;20118;-87
2021/05/21 06:13:03;;;;;;;12.38;2.75;;;13.00;87.90;;;;;;5079588;28;20085;-87
2021/05/21 06:15:29;;;;;;;14.82;3.28;;;13.00;87.00;;;;;;5051431;28;20469;-87
2021/05/21 06:17:56;;;;;;;13.73;3.05;;;13.10;86.50;;;;;;5087820;28;20046;-86
2021/05/21 06:20:22;;;;;;;11.38;2.67;;;13.20;83.90;;;;;;5079419;28;20020;-88
2021/05/21 06:22:48;;;;;;;9.73;2.05;;;13.20;83.70;;;;;;5065782;28;20019;-87
2021/05/21 06:25:16;;;;;;;10.23;2.15;;;13.20;83.10;;;;;;5073367;28;20105;-87
2021/05/21 06:27:42;;;;;;;18.25;3.30;;;13.30;80.40;;;;;;5074252;28;20378;-87
2021/05/21 06:30:08;;;;;;;12.88;2.80;;;13.30;82.30;;;;;;5055024;28;20028;-87
2021/05/21 06:32:34;;;;;;;12.35;2.90;;;13.40;81.20;;;;;;5073493;28;20028;-87
2021/05/21 06:35:22;;;;;;;10.07;2.53;;;13.40;82.50;;;;;;5086822;28;20476;-86
2021/05/21 06:37:48;;;;;;;11.18;2.47;;;13.50;82.40;;;;;;5050420;28;20028;-87
2021/05/21 06:40:14;;;;;;;9.77;2.50;;;13.60;79.90;;;;;;5088129;28;20019;-87
2021/05/21 06:42:40;;;;;;;15.18;2.95;;;13.60;80.30;;;;;;5080812;28;20028;-86
2021/05/21 06:45:06;;;;;;;11.18;2.55;;;13.70;79.60;;;;;;5046455;28;20362;-87
2021/05/21 06:47:33;;;;;;;11.13;3.15;;;13.80;78.50;;;;;;5057108;28;20056;-86
2021/05/21 06:49:58;;;;;;;13.90;2.80;;;13.80;78.60;;;;;;5073341;28;20024;-86
2021/05/21 06:52:25;;;;;;;11.20;2.17;;;13.90;77.90;;;;;;5081480;28;20031;-86
2021/05/21 06:54:51;;;;;;;9.68;2.55;;;13.90;77.80;;;;;;5056413;28;20043;-87
2021/05/21 06:57:54;;;;;;;14.93;2.10;;;14.00;73.50;;;;;;5088640;28;20043;-86
2021/05/21 07:00:20;;;;;;;12.20;2.63;;;14.10;76.70;;;;;;5075997;28;20107;-88
2021/05/21 07:02:46;;;;;;;14.32;2.55;;;14.20;74.60;;;;;;5095474;28;20052;-88
2021/05/21 07:05:13;;;;;;;12.95;2.95;;;14.30;73.90;;;;;;5094634;28;20084;-87
2021/05/21 07:07:39;;;;;;;14.55;2.60;;;14.30;74.00;;;;;;5095699;28;20050;-87
2021/05/21 07:10:08;;;;;;;14.45;2.47;;;14.40;72.20;;;;;;5045330;28;20115;-86
2021/05/21 07:12:34;;;;;;;11.75;2.15;;;14.40;73.70;;;;;;5076592;28;20485;-86
2021/05/21 07:14:59;;;;;;;14.35;2.85;;;14.30;73.10;;;;;;5082797;28;20023;-86
2021/05/21 07:17:25;;;;;;;14.95;2.60;;;14.40;74.30;;;;;;5098560;28;20096;-87
2021/05/21 07:19:52;;;;;;;10.23;2.70;;;14.40;74.10;;;;;;5129401;28;20031;-88
2021/05/21 07:22:17;;;;;;;12.52;3.30;;;14.50;73.10;;;;;;5106041;28;20250;-87
2021/05/21 07:24:43;;;;;;;13.65;2.78;;;14.60;72.70;;;;;;5097103;28;20045;-86
2021/05/21 07:27:09;;;;;;;10.57;2.78;;;14.60;71.70;;;;;;5095413;28;20028;-86
2021/05/21 07:29:34;;;;;;;10.80;2.35;;;14.60;73.90;;;;;;5085812;28;20024;-86
2021/05/21 07:32:00;;;;;;;15.32;2.63;;;14.60;73.10;;;;;;5082168;28;20024;-85
2021/05/21 07:34:26;;;;;;;15.45;3.15;;;14.70;73.70;;;;;;5103658;28;20012;-84
2021/05/21 07:36:51;;;;;;;10.02;2.28;;;14.60;72.80;;;;;;5083630;28;20024;-87
2021/05/21 07:39:17;;;;;;;11.80;2.67;;;14.60;71.60;;;;;;5055131;28;20029;-85
2021/05/21 07:41:43;;;;;;;9.98;2.33;;;14.60;72.30;;;;;;5095453;28;20530;-84
2021/05/21 07:44:10;;;;;;;13.27;2.83;;;14.60;74.30;;;;;;5104426;28;20525;-85
2021/05/21 07:46:36;;;;;;;13.38;3.33;;;14.60;74.90;;;;;;5070996;28;20050;-86
2021/05/21 07:49:01;;;;;;;15.30;2.33;;;14.70;74.80;;;;;;5070945;28;20077;-87
2021/05/21 07:51:27;;;;;;;10.82;2.70;;;14.70;74.40;;;;;;5055053;28;20025;-87
2021/05/21 07:53:53;;;;;;;15.80;3.17;;;14.80;76.40;;;;;;5070313;28;20408;-87
2021/05/21 07:56:19;;;;;;;13.45;3.38;;;14.80;75.70;;;;;;5090620;28;20024;-87
2021/05/21 07:58:45;;;;;;;9.60;2.40;;;14.90;77.20;;;;;;5075999;28;20100;-88
2021/05/21 08:01:10;;;;;;;12.20;2.30;;;14.80;79.30;;;;;;5075627;28;20028;-86
2021/05/21 08:03:36;;;;;;;10.52;2.42;;;14.70;82.70;;;;;;5059379;28;20105;-87
2021/05/21 08:06:02;;;;;;;7.28;1.60;;;14.50;85.70;;;;;;5054282;28;20494;-88
2021/05/21 08:08:31;;;;;;;8.25;2.00;;;14.30;85.40;;;;;;5092233;28;20024;-89
2021/05/21 08:10:59;;;;;;;3.97;1.60;;;14.20;86.50;;;;;;5094195;28;20024;-86
2021/05/21 08:13:25;;;;;;;7.47;1.30;;;14.00;85.70;;;;;;5075786;28;20020;-89
2021/05/21 08:15:51;;;;;;;4.43;1.25;;;13.70;85.70;;;;;;5055634;28;20079;-89
2021/05/21 08:18:17;;;;;;;9.45;1.73;;;13.60;86.10;;;;;;5070876;28;20350;-88
2021/05/21 08:20:43;;;;;;;6.70;2.22;;;13.40;87.70;;;;;;5058953;28;20465;-88
2021/05/21 08:23:14;;;;;;;5.50;1.20;;;13.30;86.00;;;;;;5075876;28;20433;-89
2021/05/21 08:25:40;;;;;;;8.23;1.73;;;13.30;87.50;;;;;;5075453;28;20016;-89
2021/05/21 08:28:06;;;;;;;7.35;1.50;;;13.30;89.20;;;;;;5055687;28;20032;-89
2021/05/21 08:30:31;;;;;;;8.07;1.60;;;13.30;90.60;;;;;;5075138;28;20075;-88
2021/05/21 08:32:57;;;;;;;4.75;1.67;;;13.40;90.90;;;;;;5075110;28;20028;-87
2021/05/21 08:35:24;;;;;;;10.52;2.17;;;13.50;90.40;;;;;;5058552;28;20020;-87
2021/05/21 08:37:51;;;;;;;9.75;2.85;;;13.60;90.60;;;;;;5075042;28;20116;-88
2021/05/21 08:40:23;;;;;;;11.48;2.20;;;13.70;90.20;;;;;;5075372;28;20082;-90
2021/05/21 08:42:57;;;;;;;11.73;2.15;;;13.80;90.00;;;;;;5093575;28;20116;-88
2021/05/21 08:45:24;;;;;;;14.07;2.92;;;13.90;89.70;;;;;;5075334;28;20099;-87
2021/05/21 08:47:50;;;;;;;8.43;2.13;;;14.00;88.20;;;;;;5075084;28;20492;-88
2021/05/21 08:50:15;;;;;;;20.45;2.60;;;14.10;90.10;;;;;;5054986;28;20032;-89
2021/05/21 08:52:42;;;;;;;13.02;2.60;;;14.30;89.50;;;;;;5090263;28;20468;-88
2021/05/21 08:55:09;;;;;;;9.45;2.75;;;14.40;89.60;;;;;;5058714;28;20028;-88
2021/05/21 08:57:35;;;;;;;14.98;2.97;;;14.50;85.80;;;;;;5074970;28;20031;-88
2021/05/21 09:00:00;;;;;;;9.65;3.00;;;14.70;85.50;;;;;;5083665;28;20033;-88
2021/05/21 09:02:28;;;;;;;10.13;2.58;;;14.80;82.00;;;;;;5087987;28;20020;-89
2021/05/21 09:04:59;;;;;;;9.77;2.38;;;14.80;77.60;;;;;;5075334;28;20440;-88
2021/05/21 09:07:33;;;;;;;10.55;2.83;;;14.90;78.80;;;;;;5079293;28;20028;-89
2021/05/21 09:10:09;;;;;;;9.02;2.33;;;15.00;77.60;;;;;;5074924;28;20032;-88
2021/05/21 09:12:40;;;;;;;8.18;2.28;;;15.10;76.70;;;;;;5074828;28;20038;-88
2021/05/21 09:15:06;;;;;;;;;;;15.10;76.10;;;;;;5075455;28;20493;-89
2021/05/21 09:17:32;;;;;;;16.38;2.40;;;15.20;74.00;;;;;;5075316;28;19908;-88
2021/05/21 09:19:58;;;;;;;7.95;1.92;;;15.20;72.70;;;;;;5077773;28;20508;-87
2021/05/21 09:22:24;;;;;;;11.93;2.45;;;15.10;73.00;;;;;;5074809;28;20362;-87
2021/05/21 09:24:50;;;;;;;11.48;2.33;;;15.10;74.90;;;;;;5074775;28;20086;-88
2021/05/21 09:27:18;;;;;;;5.65;1.70;;;15.00;80.40;;;;;;5076776;28;20389;-88
2021/05/21 09:29:49;;;;;;;7.95;2.20;;;14.90;82.50;;;;;;5080488;28;20028;-87
2021/05/21 09:32:28;;;;;;;9.10;2.03;;;14.80;83.10;;;;;;5056118;28;20400;-88
2021/05/21 09:35:06;;;;;;;9.48;2.17;;;14.60;83.20;;;;;;5092477;28;20382;-88
2021/05/21 09:37:34;;;;;;;11.10;2.00;;;14.30;85.30;;;;;;5087181;28;20558;-89
2021/05/21 09:40:02;;;;;;;6.90;1.92;;;14.10;87.40;;;;;;5074614;28;20070;-89
2021/05/21 09:42:28;;;;;;;8.85;2.42;;;14.00;89.50;;;;;;5077594;28;20036;-89
2021/05/21 09:45:09;;;;;;;11.45;2.63;;;13.90;89.60;;;;;;5082807;28;20070;-89
2021/05/21 09:47:49;;;;;;;10.07;1.90;;;13.80;89.80;;;;;;5098071;28;20021;-88
2021/05/21 09:50:15;;;;;;;8.20;2.88;;;13.80;89.90;;;;;;5102597;28;20028;-88
2021/05/21 09:52:45;;;;;;;11.18;2.75;;;13.80;90.90;;;;;;5059939;28;20111;-89
2021/05/21 09:55:11;;;;;;;13.35;2.72;;;13.90;91.40;;;;;;5083533;28;20477;-89
2021/05/21 09:57:37;;;;;;;12.30;3.05;;;14.00;91.20;;;;;;5076037;28;20024;-90
2021/05/21 10:00:12;;;;;;;16.00;3.60;;;14.00;90.20;;;;;;5065482;28;20085;-88
2021/05/21 10:02:38;;;;;;;12.77;3.22;;;14.10;88.00;;;;;;5091356;28;20100;-88
2021/05/21 10:05:06;;;;;;;11.43;2.65;;;14.20;87.10;;;;;;5072417;28;20115;-89
2021/05/21 10:07:32;;;;;;;11.40;2.55;;;14.20;84.70;;;;;;5097795;28;20020;-89
2021/05/21 10:09:58;;;;;;;14.10;3.03;;;14.30;85.70;;;;;;5074986;28;20131;-89
2021/05/21 10:12:25;;;;;;;13.48;2.67;;;14.30;84.00;;;;;;5077419;28;20067;-89
2021/05/21 10:14:51;;;;;;;13.57;2.88;;;14.30;86.00;;;;;;5078730;28;20097;-88
2021/05/21 10:17:22;;;;;;;9.93;2.70;;;14.30;85.10;;;;;;5078417;28;20028;-89
2021/05/21 10:19:50;;;;;;;11.70;2.78;;;14.20;87.40;;;;;;5083455;28;20473;-88
2021/05/21 10:22:22;;;;;;;12.75;3.13;;;14.30;86.00;;;;;;5094096;28;20028;-88
2021/05/21 10:24:52;;;;;;;9.68;2.72;;;14.40;87.50;;;;;;5101764;28;20059;-89
2021/05/21 10:27:29;;;;;;;11.10;2.85;;;14.50;88.60;;;;;;5078373;28;20027;-89
2021/05/21 10:30:05;;;;;;;10.38;2.65;;;14.70;87.20;;;;;;5072803;28;20733;-88
2021/05/21 10:32:31;;;;;;;11.40;2.60;;;14.80;85.20;;;;;;5096574;28;20027;-88
2021/05/21 10:34:58;;;;;;;9.85;2.80;;;14.90;83.70;;;;;;5088289;28;20106;-87
2021/05/21 10:37:31;;;;;;;8.77;1.98;;;15.10;82.20;;;;;;5084786;28;20016;-88
2021/05/21 10:40:00;;;;;;;7.80;1.98;;;15.20;77.40;;;;;;5076313;28;20028;-87
2021/05/21 10:42:26;;;;;;;9.68;2.17;;;15.20;72.60;;;;;;5077055;28;20016;-88
2021/05/21 10:44:54;;;;;;;7.47;2.45;;;15.20;74.30;;;;;;5094617;28;20020;-87
2021/05/21 10:47:25;;;;;;;7.63;1.52;;;15.00;77.10;;;;;;5050197;28;20040;-87
2021/05/21 10:49:51;;;;;;;;;;;14.80;77.80;;;;;;5072966;28;20415;-88
2021/05/21 10:52:21;;;;;;;16.27;3.35;;;14.60;81.60;;;;;;5096834;28;19911;-88
2021/05/21 10:54:51;;;;;;;10.50;1.85;;;14.40;82.10;;;;;;5080923;28;20008;-87
2021/05/21 10:57:18;;;;;;;11.68;2.63;;;14.30;84.60;;;;;;5080279;28;20081;-87
2021/05/21 11:00:00;;;;;;;13.23;2.85;;;14.20;84.30;;;;;;5087789;28;20032;-88
2021/05/21 11:02:43;;;;;;;8.75;2.10;;;14.20;84.50;;;;;;5109454;28;20020;-88
2021/05/21 11:05:28;;;;;;;11.32;2.35;;;14.30;85.10;;;;;;5093019;28;20088;-86
2021/05/21 11:07:55;;;;;;;12.63;2.25;;;14.40;84.80;;;;;;5102379;28;20031;-87
2021/05/21 11:10:33;;;;;;;9.35;2.53;;;14.50;84.10;;;;;;5072564;28;20042;-87
2021/05/21 11:13:13;;;;;;;11.70;3.00;;;14.50;83.00;;;;;;5103861;28;20111;-88
2021/05/21 11:15:53;;;;;;;10.80;2.00;;;14.60;82.10;;;;;;5073269;28;20040;-88
2021/05/21 11:18:19;;;;;;;11.80;2.60;;;14.60;82.80;;;;;;5083274;28;20481;-86
2021/05/21 11:21:17;;;;;;;8.75;2.03;;;14.70;82.30;;;;;;5083781;28;20354;-88
2021/05/21 11:23:46;;;;;;;7.32;2.17;;;14.80;84.00;;;;;;5082746;28;20016;-87
2021/05/21 11:26:15;;;;;;;9.30;2.00;;;15.00;83.30;;;;;;5101723;28;20024;-87
2021/05/21 11:28:44;;;;;;;14.70;2.30;;;15.20;81.70;;;;;;5083845;28;20024;-88
2021/05/21 11:31:24;;;;;;;13.35;2.22;;;15.40;76.20;;;;;;5084318;28;20024;-87
2021/05/21 11:33:52;;;;;;;7.13;1.83;;;15.50;76.30;;;;;;5082960;28;20467;-87
2021/05/21 11:36:23;;;;;;;9.20;2.20;;;15.60;73.60;;;;;;5089785;28;20026;-87
2021/05/21 11:38:48;;;;;;;12.02;3.03;;;15.60;73.00;;;;;;5090428;28;20040;-88
2021/05/21 11:41:15;;;;;;;12.23;2.67;;;15.60;76.20;;;;;;5090349;28;20423;-88
2021/05/21 11:43:45;;;;;;;11.70;2.38;;;15.30;83.40;;;;;;5089296;28;20024;-86
2021/05/21 11:46:13;;;;;;;9.98;2.55;;;14.90;84.20;;;;;;5081903;28;20017;-88
2021/05/21 11:48:40;;;;;;;11.95;2.28;;;14.50;87.90;;;;;;5095320;28;20107;-85
2021/05/21 11:51:15;;;;;;;11.77;2.47;;;14.20;90.00;;;;;;5098581;28;20024;-87
2021/05/21 11:54:02;;;;;;;11.25;2.85;;;13.80;90.30;;;;;;5076745;28;20097;-87
2021/05/21 11:56:27;;;;;;;12.30;2.67;;;13.60;91.30;;;;;;5076263;28;20063;-88
2021/05/21 11:59:09;;;;;;;9.93;2.10;;;13.40;92.20;;;;;;5075980;28;20016;-87
2021/05/21 12:01:37;;;;;;;13.90;2.65;;;13.30;93.50;;;;;;5063353;28;20036;-87
2021/05/21 12:04:08;;;;;;;9.85;2.30;;;13.30;93.40;;;;;;5063061;23;20045;-85
2021/05/21 12:06:35;;;;;;;9.15;1.80;;;13.40;94.20;;;;;;5042476;28;20031;-86
2021/05/21 12:09:05;;;;;;;16.05;3.10;;;13.50;94.60;;;;;;5039877;28;20098;-86
2021/05/21 12:11:31;;;;;;;16.13;3.58;;;13.60;93.90;;;;;;5041507;28;20025;-87
2021/05/21 12:14:05;;;;;;;9.20;2.88;;;13.80;94.20;;;;;;5047916;28;20024;-87
2021/05/21 12:16:33;;;;;;;9.52;1.80;;;14.00;94.00;;;;;;5050284;28;20024;-86
2021/05/21 12:18:59;;;;;;;11.13;2.75;;;14.10;92.90;;;;;;5034174;28;20094;-87
2021/05/21 12:21:28;;;;;;;16.00;2.80;;;14.20;93.50;;;;;;5038662;28;20115;-87
2021/05/21 12:23:56;;;;;;;15.00;3.30;;;14.40;92.90;;;;;;5055000;28;20461;-86
2021/05/21 12:26:24;;;;;;;10.68;2.63;;;14.50;91.40;;;;;;5019354;28;20025;-86
2021/05/21 12:28:50;;;;;;;9.73;2.10;;;14.60;91.00;;;;;;5041898;28;20028;-85
2021/05/21 12:31:19;;;;;;;13.23;3.00;;;14.80;89.00;;;;;;5037850;28;20032;-87
2021/05/21 12:33:45;;;;;;;13.93;2.55;;;15.00;90.30;;;;;;5052594;28;20401;-87
2021/05/21 12:36:16;;;;;;;9.63;2.17;;;15.10;88.30;;;;;;5061770;28;20024;-87
2021/05/21 12:38:51;;;;;;;9.70;2.53;;;15.20;85.40;;;;;;5025916;28;20028;-87
2021/05/21 12:41:20;;;;;;;11.90;2.60;;;15.20;83.90;;;;;;5055119;28;20040;-87
2021/05/21 12:43:46;;;;;;;11.55;2.80;;;15.20;85.30;;;;;;5041816;28;20474;-88